All Spectrum Aviation - Van Nuys Airport - KVNY

HOME

Van Nuys Tower Recordings

Condor Squadron KVNY Webcam

Visit our Electronics Store

Condor Squadron Webcam - Van Nuys Airport - KVNY
Picture taken: Thu, 14 Dec 2017 06:43:12 -0800
YouTube Channel!    Latest Timelapse Movie    Full Size Image    Regular Size Image    

2017/12/14 13:51 KVNY 141351Z VRB03KT 10SM CLR 08/M06 A2998 RMK AO2 SLP147 T00831061 $

HOME

Van Nuys Tower Recordings

Condor Squadron KVNY Webcam

Visit our Electronics Store